Hauptseite
METAR-TAF:

METAR-TAF

Flughäfen :

Valley, Wales

Breite: 53-15N, Länge: 004-32W, Höhe: 1 m

Beobachtung

Neuester Wetterbericht von vor 1 Stunde und 5 Minuten, um 02:50 UTC
Wind 18 kt aus West
Temperatur 11°C
Luftfeuchtigkeit 82%
Luftdruck 1035 hPa
Sichtweite 10 km oder mehr

METAR: EGOV 230250Z AUTO 28018KT 9999 BKN015/// 11/08 Q1035

Zeit: 04:55 (03:55 UTC)

Prognose

Neuester Wetterbericht von vor 14 Stunden und 11 Minuten, um 13:44 UTC
Gültige Prognose vom 22 um 15 UTC bis 22 um 19 UTC
Wind 10 kt aus West
Sichtweite 10 km oder mehr
Leicht bewölkt in der Höhe von 2200 ft

TAF: EGOV 221344Z 2215/2219 27010KT 9999 FEW022

Wetterbeobachtungen und Prognosen von mehr als 4000 Flughäfen (METAR und TAF Bericht).

Die verfügbaren Stationen werden durch gelbe und rote Markierungen auf der Karte dargestellt.

Führen Sie die Maus auf sie, um den Namen der Station zu sehen.

Darauf klicken, um die Beobachtung von Wetterbeobachtungen und Prognosen zu sehen.

Um die Karte zu ändern : klicken Sie auf den grünen Tasten mit einem schwarzen Kreuz Zum Vergrößern, auf den grünen Button mit einem Gedankenstrich zu verkleinern, oder auf die grünen Pfeile für benachbarte Karten.


METAR-TAF: